Homer, Michigan
Current Conditions -  °F | °C
As of 3:33 PM on Saturday 25 Oct 2014 (Local Time) from KRMY Reporting Station
Clear Clear  
Wind Chill: 67°   Ceiling: Unl
Heat Index: 67°   Visibility: 10mi
Dew Point: 35°   Wind: 21mph
Humidity: 31%   Direction: 280°W
Pressure: 29.8"   Gusts: 28mph
Location:  42.15°N, 84.81°W
Report Text: KRMY 251933Z AUTO 28018G24KT 10SM CLR 20/02 A2980 RMK AO2 T01950019
Loading
Personal Weather Stations






























Interactive Weather Map New forecast layout! Learn more

10-Day Weather Forecast

Advertisements
Track Severe Weather on mobile